sensor_id;sensor_type;location;lat;lon;timestamp;P1;durP1;ratioP1;P2;durP2;ratioP2
16242;SDS011;11719;51.052;6.982;2024-01-25T00:00:08;8.70;;;2.23;;
16242;SDS011;11719;51.052;6.982;2024-01-25T00:02:35;12.50;;;3.17;;
16242;SDS011;11719;51.052;6.982;2024-01-25T00:05:01;11.70;;;2.70;;
16242;SDS011;11719;51.052;6.982;2024-01-25T00:07:27;5.20;;;1.90;;
16242;SDS011;11719;51.052;6.982;2024-01-25T00:09:53;13.50;;;2.60;;
16242;SDS011;11719;51.052;6.982;2024-01-25T00:12:19;15.77;;;3.13;;
16242;SDS011;11719;51.052;6.982;2024-01-25T00:14:44;10.70;;;1.97;;
16242;SDS011;11719;51.052;6.982;2024-01-25T00:17:10;15.67;;;2.83;;
16242;SDS011;11719;51.052;6.982;2024-01-25T00:19:36;13.30;;;2.93;;
16242;SDS011;11719;51.052;6.982;2024-01-25T00:22:02;11.30;;;2.20;;
16242;SDS011;11719;51.052;6.982;2024-01-25T00:24:28;8.87;;;2.20;;
16242;SDS011;11719;51.052;6.982;2024-01-25T00:26:54;13.23;;;2.37;;
16242;SDS011;11719;51.052;6.982;2024-01-25T00:29:20;11.00;;;3.30;;
16242;SDS011;11719;51.052;6.982;2024-01-25T00:31:45;11.10;;;2.67;;
16242;SDS011;11719;51.052;6.982;2024-01-25T00:34:11;11.53;;;2.83;;
16242;SDS011;11719;51.052;6.982;2024-01-25T00:36:40;8.40;;;2.67;;
16242;SDS011;11719;51.052;6.982;2024-01-25T00:39:06;10.13;;;2.37;;
16242;SDS011;11719;51.052;6.982;2024-01-25T00:41:35;18.97;;;3.37;;
16242;SDS011;11719;51.052;6.982;2024-01-25T00:44:04;13.73;;;2.33;;
16242;SDS011;11719;51.052;6.982;2024-01-25T00:46:30;12.60;;;2.63;;
16242;SDS011;11719;51.052;6.982;2024-01-25T00:48:56;11.63;;;2.27;;
16242;SDS011;11719;51.052;6.982;2024-01-25T00:51:23;14.20;;;2.83;;
16242;SDS011;11719;51.052;6.982;2024-01-25T00:53:49;13.47;;;2.10;;
16242;SDS011;11719;51.052;6.982;2024-01-25T00:56:15;13.17;;;3.33;;
16242;SDS011;11719;51.052;6.982;2024-01-25T00:58:45;9.60;;;1.87;;
16242;SDS011;11719;51.052;6.982;2024-01-25T01:01:11;8.97;;;2.70;;
16242;SDS011;11719;51.052;6.982;2024-01-25T01:03:37;13.63;;;2.23;;
16242;SDS011;11719;51.052;6.982;2024-01-25T01:06:06;8.93;;;2.73;;
16242;SDS011;11719;51.052;6.982;2024-01-25T01:08:33;20.40;;;4.13;;
16242;SDS011;11719;51.052;6.982;2024-01-25T01:10:59;10.80;;;2.10;;
16242;SDS011;11719;51.052;6.982;2024-01-25T01:13:25;18.77;;;2.57;;
16242;SDS011;11719;51.052;6.982;2024-01-25T01:15:53;5.97;;;2.03;;
16242;SDS011;11719;51.052;6.982;2024-01-25T01:18:19;18.63;;;2.30;;
16242;SDS011;11719;51.052;6.982;2024-01-25T01:20:45;12.23;;;2.00;;
16242;SDS011;11719;51.052;6.982;2024-01-25T01:23:15;13.77;;;3.03;;
16242;SDS011;11719;51.052;6.982;2024-01-25T01:25:41;6.73;;;2.17;;
16242;SDS011;11719;51.052;6.982;2024-01-25T01:28:09;16.53;;;3.57;;
16242;SDS011;11719;51.052;6.982;2024-01-25T01:30:35;16.43;;;2.77;;
16242;SDS011;11719;51.052;6.982;2024-01-25T01:33:09;14.60;;;2.73;;
16242;SDS011;11719;51.052;6.982;2024-01-25T01:35:35;9.90;;;2.47;;
16242;SDS011;11719;51.052;6.982;2024-01-25T01:38:01;15.67;;;2.60;;
16242;SDS011;11719;51.052;6.982;2024-01-25T01:40:27;12.00;;;2.50;;
16242;SDS011;11719;51.052;6.982;2024-01-25T01:42:59;10.90;;;2.90;;
16242;SDS011;11719;51.052;6.982;2024-01-25T01:45:26;14.40;;;2.83;;
16242;SDS011;11719;51.052;6.982;2024-01-25T01:47:52;12.90;;;2.87;;
16242;SDS011;11719;51.052;6.982;2024-01-25T01:50:19;8.73;;;2.60;;
16242;SDS011;11719;51.052;6.982;2024-01-25T01:52:47;12.27;;;2.57;;
16242;SDS011;11719;51.052;6.982;2024-01-25T01:55:16;13.10;;;2.30;;
16242;SDS011;11719;51.052;6.982;2024-01-25T01:57:42;9.07;;;2.17;;
16242;SDS011;11719;51.052;6.982;2024-01-25T02:00:09;15.23;;;3.17;;
16242;SDS011;11719;51.052;6.982;2024-01-25T02:02:39;9.33;;;2.27;;
16242;SDS011;11719;51.052;6.982;2024-01-25T02:05:05;11.70;;;2.80;;
16242;SDS011;11719;51.052;6.982;2024-01-25T02:07:31;14.27;;;2.37;;
16242;SDS011;11719;51.052;6.982;2024-01-25T02:09:57;14.03;;;2.20;;
16242;SDS011;11719;51.052;6.982;2024-01-25T02:12:23;7.60;;;2.17;;
16242;SDS011;11719;51.052;6.982;2024-01-25T02:14:49;10.77;;;1.90;;
16242;SDS011;11719;51.052;6.982;2024-01-25T02:17:14;8.17;;;1.80;;
16242;SDS011;11719;51.052;6.982;2024-01-25T02:19:40;11.73;;;2.77;;
16242;SDS011;11719;51.052;6.982;2024-01-25T02:22:06;11.17;;;2.13;;
16242;SDS011;11719;51.052;6.982;2024-01-25T02:24:32;10.57;;;2.60;;
16242;SDS011;11719;51.052;6.982;2024-01-25T02:26:58;16.43;;;2.30;;
16242;SDS011;11719;51.052;6.982;2024-01-25T02:29:26;13.50;;;1.83;;
16242;SDS011;11719;51.052;6.982;2024-01-25T02:31:52;10.80;;;2.70;;
16242;SDS011;11719;51.052;6.982;2024-01-25T02:34:18;20.33;;;2.97;;
16242;SDS011;11719;51.052;6.982;2024-01-25T02:36:46;11.83;;;2.87;;
16242;SDS011;11719;51.052;6.982;2024-01-25T02:39:12;12.03;;;2.23;;
16242;SDS011;11719;51.052;6.982;2024-01-25T02:41:38;15.93;;;2.73;;
16242;SDS011;11719;51.052;6.982;2024-01-25T02:44:04;9.83;;;2.30;;
16242;SDS011;11719;51.052;6.982;2024-01-25T02:46:29;12.90;;;2.37;;
16242;SDS011;11719;51.052;6.982;2024-01-25T02:48:55;11.47;;;2.40;;
16242;SDS011;11719;51.052;6.982;2024-01-25T02:51:21;15.30;;;2.40;;
16242;SDS011;11719;51.052;6.982;2024-01-25T02:53:47;16.63;;;2.70;;
16242;SDS011;11719;51.052;6.982;2024-01-25T02:56:13;9.60;;;2.50;;
16242;SDS011;11719;51.052;6.982;2024-01-25T02:58:38;15.97;;;3.07;;
16242;SDS011;11719;51.052;6.982;2024-01-25T03:01:04;11.50;;;2.53;;
16242;SDS011;11719;51.052;6.982;2024-01-25T03:03:30;13.83;;;3.03;;
16242;SDS011;11719;51.052;6.982;2024-01-25T03:05:56;9.93;;;2.30;;
16242;SDS011;11719;51.052;6.982;2024-01-25T03:08:22;11.60;;;2.90;;
16242;SDS011;11719;51.052;6.982;2024-01-25T03:10:47;18.00;;;3.37;;
16242;SDS011;11719;51.052;6.982;2024-01-25T03:13:14;10.67;;;2.00;;
16242;SDS011;11719;51.052;6.982;2024-01-25T03:15:41;17.57;;;3.00;;
16242;SDS011;11719;51.052;6.982;2024-01-25T03:18:09;9.47;;;2.13;;
16242;SDS011;11719;51.052;6.982;2024-01-25T03:20:37;17.73;;;2.60;;
16242;SDS011;11719;51.052;6.982;2024-01-25T03:23:03;19.47;;;2.73;;
16242;SDS011;11719;51.052;6.982;2024-01-25T03:25:29;13.80;;;3.00;;
16242;SDS011;11719;51.052;6.982;2024-01-25T03:27:56;16.13;;;3.03;;
16242;SDS011;11719;51.052;6.982;2024-01-25T03:30:22;14.80;;;3.07;;
16242;SDS011;11719;51.052;6.982;2024-01-25T03:32:47;16.77;;;2.90;;
16242;SDS011;11719;51.052;6.982;2024-01-25T03:35:13;11.67;;;2.57;;
16242;SDS011;11719;51.052;6.982;2024-01-25T03:37:39;17.20;;;2.37;;
16242;SDS011;11719;51.052;6.982;2024-01-25T03:40:05;7.73;;;1.97;;
16242;SDS011;11719;51.052;6.982;2024-01-25T03:42:31;12.40;;;2.20;;
16242;SDS011;11719;51.052;6.982;2024-01-25T03:44:57;18.03;;;2.97;;
16242;SDS011;11719;51.052;6.982;2024-01-25T03:47:23;15.77;;;2.60;;
16242;SDS011;11719;51.052;6.982;2024-01-25T03:49:49;14.23;;;2.97;;
16242;SDS011;11719;51.052;6.982;2024-01-25T03:52:18;11.87;;;2.50;;
16242;SDS011;11719;51.052;6.982;2024-01-25T03:54:43;10.67;;;2.47;;
16242;SDS011;11719;51.052;6.982;2024-01-25T03:57:09;8.27;;;2.27;;
16242;SDS011;11719;51.052;6.982;2024-01-25T03:59:35;19.50;;;4.67;;
16242;SDS011;11719;51.052;6.982;2024-01-25T04:02:00;17.17;;;3.17;;
16242;SDS011;11719;51.052;6.982;2024-01-25T04:04:26;14.43;;;3.10;;
16242;SDS011;11719;51.052;6.982;2024-01-25T04:06:52;18.13;;;2.80;;
16242;SDS011;11719;51.052;6.982;2024-01-25T04:09:18;9.57;;;3.23;;
16242;SDS011;11719;51.052;6.982;2024-01-25T04:11:43;12.83;;;2.10;;
16242;SDS011;11719;51.052;6.982;2024-01-25T04:14:09;14.53;;;2.27;;
16242;SDS011;11719;51.052;6.982;2024-01-25T04:16:35;15.57;;;2.57;;
16242;SDS011;11719;51.052;6.982;2024-01-25T04:19:01;6.80;;;2.00;;
16242;SDS011;11719;51.052;6.982;2024-01-25T04:21:29;18.83;;;2.67;;
16242;SDS011;11719;51.052;6.982;2024-01-25T04:23:55;14.37;;;2.70;;
16242;SDS011;11719;51.052;6.982;2024-01-25T04:26:21;16.90;;;3.37;;
16242;SDS011;11719;51.052;6.982;2024-01-25T04:28:47;16.13;;;3.70;;
16242;SDS011;11719;51.052;6.982;2024-01-25T04:31:13;18.63;;;2.70;;
16242;SDS011;11719;51.052;6.982;2024-01-25T04:33:38;11.77;;;2.60;;
16242;SDS011;11719;51.052;6.982;2024-01-25T04:36:05;11.77;;;2.50;;
16242;SDS011;11719;51.052;6.982;2024-01-25T04:38:31;18.97;;;3.53;;
16242;SDS011;11719;51.052;6.982;2024-01-25T04:40:57;17.03;;;3.03;;
16242;SDS011;11719;51.052;6.982;2024-01-25T04:43:23;13.17;;;3.00;;
16242;SDS011;11719;51.052;6.982;2024-01-25T04:45:49;11.83;;;2.30;;
16242;SDS011;11719;51.052;6.982;2024-01-25T04:48:15;14.07;;;2.43;;
16242;SDS011;11719;51.052;6.982;2024-01-25T04:50:41;23.63;;;3.60;;
16242;SDS011;11719;51.052;6.982;2024-01-25T04:53:07;21.37;;;2.93;;
16242;SDS011;11719;51.052;6.982;2024-01-25T04:55:32;22.63;;;2.87;;
16242;SDS011;11719;51.052;6.982;2024-01-25T04:57:58;14.40;;;3.20;;
16242;SDS011;11719;51.052;6.982;2024-01-25T05:00:24;16.07;;;2.93;;
16242;SDS011;11719;51.052;6.982;2024-01-25T05:02:50;16.47;;;3.17;;
16242;SDS011;11719;51.052;6.982;2024-01-25T05:05:15;12.90;;;2.53;;
16242;SDS011;11719;51.052;6.982;2024-01-25T05:07:41;19.63;;;2.80;;
16242;SDS011;11719;51.052;6.982;2024-01-25T05:10:07;12.70;;;2.50;;
16242;SDS011;11719;51.052;6.982;2024-01-25T05:12:33;17.27;;;2.90;;
16242;SDS011;11719;51.052;6.982;2024-01-25T05:14:59;15.60;;;2.87;;
16242;SDS011;11719;51.052;6.982;2024-01-25T05:17:25;11.23;;;2.53;;
16242;SDS011;11719;51.052;6.982;2024-01-25T05:19:51;15.93;;;3.00;;
16242;SDS011;11719;51.052;6.982;2024-01-25T05:22:16;13.60;;;2.57;;
16242;SDS011;11719;51.052;6.982;2024-01-25T05:24:42;9.97;;;2.67;;
16242;SDS011;11719;51.052;6.982;2024-01-25T05:27:09;13.17;;;2.37;;
16242;SDS011;11719;51.052;6.982;2024-01-25T05:29:35;16.90;;;3.70;;
16242;SDS011;11719;51.052;6.982;2024-01-25T05:32:00;10.93;;;2.43;;
16242;SDS011;11719;51.052;6.982;2024-01-25T05:34:26;11.37;;;3.03;;
16242;SDS011;11719;51.052;6.982;2024-01-25T05:36:52;14.83;;;2.67;;
16242;SDS011;11719;51.052;6.982;2024-01-25T05:39:18;10.13;;;2.77;;
16242;SDS011;11719;51.052;6.982;2024-01-25T05:41:45;18.63;;;2.70;;
16242;SDS011;11719;51.052;6.982;2024-01-25T05:44:12;17.40;;;2.53;;
16242;SDS011;11719;51.052;6.982;2024-01-25T05:46:38;12.43;;;2.73;;
16242;SDS011;11719;51.052;6.982;2024-01-25T05:49:04;11.70;;;2.27;;
16242;SDS011;11719;51.052;6.982;2024-01-25T05:51:29;18.27;;;3.10;;
16242;SDS011;11719;51.052;6.982;2024-01-25T05:53:55;16.43;;;3.00;;
16242;SDS011;11719;51.052;6.982;2024-01-25T05:56:21;14.43;;;2.23;;
16242;SDS011;11719;51.052;6.982;2024-01-25T05:58:47;10.23;;;2.30;;
16242;SDS011;11719;51.052;6.982;2024-01-25T06:01:13;12.13;;;2.57;;
16242;SDS011;11719;51.052;6.982;2024-01-25T06:03:39;12.43;;;3.00;;
16242;SDS011;11719;51.052;6.982;2024-01-25T06:06:08;12.53;;;2.23;;
16242;SDS011;11719;51.052;6.982;2024-01-25T06:08:34;11.57;;;2.33;;
16242;SDS011;11719;51.052;6.982;2024-01-25T06:11:00;9.87;;;2.70;;
16242;SDS011;11719;51.052;6.982;2024-01-25T06:13:26;15.43;;;2.50;;
16242;SDS011;11719;51.052;6.982;2024-01-25T06:15:51;12.37;;;2.27;;
16242;SDS011;11719;51.052;6.982;2024-01-25T06:18:17;11.23;;;2.17;;
16242;SDS011;11719;51.052;6.982;2024-01-25T06:20:43;15.53;;;3.37;;
16242;SDS011;11719;51.052;6.982;2024-01-25T06:23:09;16.97;;;2.67;;
16242;SDS011;11719;51.052;6.982;2024-01-25T06:25:35;7.77;;;2.10;;
16242;SDS011;11719;51.052;6.982;2024-01-25T06:28:01;14.30;;;2.23;;
16242;SDS011;11719;51.052;6.982;2024-01-25T06:30:28;10.13;;;2.60;;
16242;SDS011;11719;51.052;6.982;2024-01-25T06:32:57;14.13;;;2.73;;
16242;SDS011;11719;51.052;6.982;2024-01-25T06:35:23;8.03;;;2.20;;
16242;SDS011;11719;51.052;6.982;2024-01-25T06:37:48;8.07;;;2.57;;
16242;SDS011;11719;51.052;6.982;2024-01-25T06:40:14;13.53;;;3.20;;
16242;SDS011;11719;51.052;6.982;2024-01-25T06:42:40;11.60;;;2.40;;
16242;SDS011;11719;51.052;6.982;2024-01-25T06:45:07;13.23;;;2.67;;
16242;SDS011;11719;51.052;6.982;2024-01-25T06:47:34;7.03;;;1.97;;
16242;SDS011;11719;51.052;6.982;2024-01-25T06:50:00;6.03;;;2.17;;
16242;SDS011;11719;51.052;6.982;2024-01-25T06:52:26;10.37;;;2.97;;
16242;SDS011;11719;51.052;6.982;2024-01-25T06:54:52;12.03;;;2.60;;
16242;SDS011;11719;51.052;6.982;2024-01-25T06:57:18;10.20;;;2.20;;
16242;SDS011;11719;51.052;6.982;2024-01-25T06:59:43;11.37;;;2.10;;
16242;SDS011;11719;51.052;6.982;2024-01-25T07:02:09;9.10;;;2.20;;
16242;SDS011;11719;51.052;6.982;2024-01-25T07:04:36;12.87;;;2.57;;
16242;SDS011;11719;51.052;6.982;2024-01-25T07:07:05;9.33;;;2.33;;
16242;SDS011;11719;51.052;6.982;2024-01-25T07:09:31;8.27;;;1.97;;
16242;SDS011;11719;51.052;6.982;2024-01-25T07:11:57;8.47;;;2.00;;
16242;SDS011;11719;51.052;6.982;2024-01-25T07:14:23;9.47;;;1.97;;
16242;SDS011;11719;51.052;6.982;2024-01-25T07:16:49;11.70;;;2.10;;
16242;SDS011;11719;51.052;6.982;2024-01-25T07:19:14;14.23;;;2.77;;
16242;SDS011;11719;51.052;6.982;2024-01-25T07:21:40;9.83;;;2.17;;
16242;SDS011;11719;51.052;6.982;2024-01-25T07:24:06;11.37;;;2.27;;
16242;SDS011;11719;51.052;6.982;2024-01-25T07:26:32;7.17;;;1.70;;
16242;SDS011;11719;51.052;6.982;2024-01-25T07:28:57;8.27;;;2.00;;
16242;SDS011;11719;51.052;6.982;2024-01-25T07:31:27;6.80;;;2.13;;
16242;SDS011;11719;51.052;6.982;2024-01-25T07:33:53;9.50;;;2.30;;
16242;SDS011;11719;51.052;6.982;2024-01-25T07:36:20;16.67;;;2.73;;
16242;SDS011;11719;51.052;6.982;2024-01-25T07:38:46;12.13;;;2.30;;
16242;SDS011;11719;51.052;6.982;2024-01-25T07:41:12;4.47;;;1.83;;
16242;SDS011;11719;51.052;6.982;2024-01-25T07:43:38;13.40;;;2.80;;
16242;SDS011;11719;51.052;6.982;2024-01-25T07:46:04;13.33;;;2.23;;
16242;SDS011;11719;51.052;6.982;2024-01-25T07:48:30;10.27;;;2.20;;
16242;SDS011;11719;51.052;6.982;2024-01-25T07:50:56;16.27;;;2.90;;
16242;SDS011;11719;51.052;6.982;2024-01-25T07:53:22;14.23;;;3.13;;
16242;SDS011;11719;51.052;6.982;2024-01-25T07:55:48;17.63;;;3.33;;
16242;SDS011;11719;51.052;6.982;2024-01-25T07:58:16;12.27;;;3.13;;
16242;SDS011;11719;51.052;6.982;2024-01-25T08:00:45;16.27;;;3.37;;
16242;SDS011;11719;51.052;6.982;2024-01-25T08:03:14;13.00;;;2.93;;
16242;SDS011;11719;51.052;6.982;2024-01-25T08:05:40;18.23;;;3.47;;
16242;SDS011;11719;51.052;6.982;2024-01-25T08:08:06;7.83;;;2.87;;
16242;SDS011;11719;51.052;6.982;2024-01-25T08:10:33;16.90;;;3.73;;
16242;SDS011;11719;51.052;6.982;2024-01-25T08:12:58;11.03;;;2.50;;
16242;SDS011;11719;51.052;6.982;2024-01-25T08:15:24;19.23;;;3.07;;
16242;SDS011;11719;51.052;6.982;2024-01-25T08:17:50;14.00;;;3.43;;
16242;SDS011;11719;51.052;6.982;2024-01-25T08:20:16;14.53;;;3.17;;
16242;SDS011;11719;51.052;6.982;2024-01-25T08:22:41;13.77;;;2.47;;
16242;SDS011;11719;51.052;6.982;2024-01-25T08:25:07;9.97;;;2.50;;
16242;SDS011;11719;51.052;6.982;2024-01-25T08:27:33;9.03;;;2.63;;
16242;SDS011;11719;51.052;6.982;2024-01-25T08:30:02;9.13;;;3.77;;
16242;SDS011;11719;51.052;6.982;2024-01-25T08:32:28;16.13;;;3.37;;
16242;SDS011;11719;51.052;6.982;2024-01-25T08:34:54;11.40;;;3.27;;
16242;SDS011;11719;51.052;6.982;2024-01-25T08:37:19;11.40;;;3.03;;
16242;SDS011;11719;51.052;6.982;2024-01-25T08:39:45;9.37;;;2.73;;
16242;SDS011;11719;51.052;6.982;2024-01-25T08:42:14;10.57;;;3.53;;
16242;SDS011;11719;51.052;6.982;2024-01-25T08:44:43;14.53;;;2.63;;
16242;SDS011;11719;51.052;6.982;2024-01-25T08:47:16;21.57;;;3.90;;
16242;SDS011;11719;51.052;6.982;2024-01-25T08:49:46;12.83;;;2.77;;
16242;SDS011;11719;51.052;6.982;2024-01-25T08:52:12;19.03;;;3.67;;
16242;SDS011;11719;51.052;6.982;2024-01-25T08:54:38;8.03;;;3.73;;
16242;SDS011;11719;51.052;6.982;2024-01-25T08:57:04;15.20;;;4.93;;
16242;SDS011;11719;51.052;6.982;2024-01-25T08:59:31;11.93;;;4.00;;
16242;SDS011;11719;51.052;6.982;2024-01-25T09:02:00;15.47;;;4.37;;
16242;SDS011;11719;51.052;6.982;2024-01-25T09:04:26;14.20;;;3.33;;
16242;SDS011;11719;51.052;6.982;2024-01-25T09:06:52;16.00;;;4.23;;
16242;SDS011;11719;51.052;6.982;2024-01-25T09:09:18;12.17;;;4.13;;
16242;SDS011;11719;51.052;6.982;2024-01-25T09:11:43;19.70;;;4.73;;
16242;SDS011;11719;51.052;6.982;2024-01-25T09:14:09;16.17;;;4.63;;
16242;SDS011;11719;51.052;6.982;2024-01-25T09:16:38;12.03;;;4.37;;
16242;SDS011;11719;51.052;6.982;2024-01-25T09:19:04;20.70;;;4.67;;
16242;SDS011;11719;51.052;6.982;2024-01-25T09:21:30;17.13;;;4.30;;
16242;SDS011;11719;51.052;6.982;2024-01-25T09:23:56;16.77;;;4.43;;
16242;SDS011;11719;51.052;6.982;2024-01-25T09:26:22;21.90;;;4.80;;
16242;SDS011;11719;51.052;6.982;2024-01-25T09:28:48;17.33;;;3.80;;
16242;SDS011;11719;51.052;6.982;2024-01-25T09:31:13;17.03;;;5.17;;
16242;SDS011;11719;51.052;6.982;2024-01-25T09:33:39;20.10;;;5.57;;
16242;SDS011;11719;51.052;6.982;2024-01-25T09:36:06;20.13;;;4.93;;
16242;SDS011;11719;51.052;6.982;2024-01-25T09:38:35;16.77;;;4.13;;
16242;SDS011;11719;51.052;6.982;2024-01-25T09:41:00;19.47;;;5.50;;
16242;SDS011;11719;51.052;6.982;2024-01-25T09:43:27;21.70;;;5.40;;
16242;SDS011;11719;51.052;6.982;2024-01-25T09:45:53;18.83;;;5.17;;
16242;SDS011;11719;51.052;6.982;2024-01-25T09:48:19;24.93;;;7.37;;
16242;SDS011;11719;51.052;6.982;2024-01-25T09:50:48;15.23;;;4.47;;
16242;SDS011;11719;51.052;6.982;2024-01-25T09:53:20;22.37;;;5.40;;
16242;SDS011;11719;51.052;6.982;2024-01-25T09:55:55;25.93;;;5.57;;
16242;SDS011;11719;51.052;6.982;2024-01-25T10:01:08;20.47;;;5.13;;
16242;SDS011;11719;51.052;6.982;2024-01-25T10:03:35;25.13;;;5.43;;
16242;SDS011;11719;51.052;6.982;2024-01-25T10:06:02;14.40;;;5.03;;
16242;SDS011;11719;51.052;6.982;2024-01-25T10:08:29;20.63;;;5.77;;
16242;SDS011;11719;51.052;6.982;2024-01-25T10:10:55;18.30;;;4.77;;
16242;SDS011;11719;51.052;6.982;2024-01-25T10:13:20;14.77;;;4.60;;
16242;SDS011;11719;51.052;6.982;2024-01-25T10:15:47;23.07;;;5.80;;
16242;SDS011;11719;51.052;6.982;2024-01-25T10:18:16;19.13;;;5.87;;
16242;SDS011;11719;51.052;6.982;2024-01-25T10:20:45;21.80;;;5.97;;
16242;SDS011;11719;51.052;6.982;2024-01-25T10:23:10;27.70;;;5.80;;
16242;SDS011;11719;51.052;6.982;2024-01-25T10:25:36;21.50;;;5.40;;
16242;SDS011;11719;51.052;6.982;2024-01-25T10:28:06;23.77;;;6.63;;
16242;SDS011;11719;51.052;6.982;2024-01-25T10:30:33;17.77;;;4.97;;
16242;SDS011;11719;51.052;6.982;2024-01-25T10:33:01;17.77;;;5.83;;
16242;SDS011;11719;51.052;6.982;2024-01-25T10:35:29;22.10;;;6.30;;
16242;SDS011;11719;51.052;6.982;2024-01-25T10:37:57;17.93;;;5.67;;
16242;SDS011;11719;51.052;6.982;2024-01-25T10:40:23;16.97;;;5.33;;
16242;SDS011;11719;51.052;6.982;2024-01-25T10:42:49;25.17;;;6.47;;
16242;SDS011;11719;51.052;6.982;2024-01-25T10:45:15;23.03;;;5.87;;
16242;SDS011;11719;51.052;6.982;2024-01-25T10:47:42;18.93;;;5.43;;
16242;SDS011;11719;51.052;6.982;2024-01-25T10:50:13;23.80;;;6.47;;
16242;SDS011;11719;51.052;6.982;2024-01-25T10:52:39;20.43;;;5.97;;
16242;SDS011;11719;51.052;6.982;2024-01-25T10:55:08;19.93;;;6.80;;
16242;SDS011;11719;51.052;6.982;2024-01-25T10:57:43;25.27;;;5.67;;
16242;SDS011;11719;51.052;6.982;2024-01-25T11:00:11;22.87;;;5.60;;
16242;SDS011;11719;51.052;6.982;2024-01-25T11:02:39;23.90;;;6.13;;
16242;SDS011;11719;51.052;6.982;2024-01-25T11:05:08;19.77;;;6.07;;
16242;SDS011;11719;51.052;6.982;2024-01-25T11:07:47;25.13;;;6.37;;
16242;SDS011;11719;51.052;6.982;2024-01-25T11:12:48;17.00;;;5.93;;
16242;SDS011;11719;51.052;6.982;2024-01-25T11:15:23;26.23;;;6.87;;
16242;SDS011;11719;51.052;6.982;2024-01-25T11:17:55;17.20;;;5.73;;
16242;SDS011;11719;51.052;6.982;2024-01-25T11:20:22;24.90;;;6.30;;
16242;SDS011;11719;51.052;6.982;2024-01-25T11:23:01;18.90;;;7.00;;
16242;SDS011;11719;51.052;6.982;2024-01-25T11:25:33;21.27;;;6.43;;
16242;SDS011;11719;51.052;6.982;2024-01-25T11:28:01;12.47;;;4.47;;
16242;SDS011;11719;51.052;6.982;2024-01-25T11:30:30;20.30;;;5.90;;
16242;SDS011;11719;51.052;6.982;2024-01-25T11:32:58;18.03;;;5.00;;
16242;SDS011;11719;51.052;6.982;2024-01-25T11:35:24;23.53;;;5.87;;
16242;SDS011;11719;51.052;6.982;2024-01-25T11:37:53;14.90;;;5.00;;
16242;SDS011;11719;51.052;6.982;2024-01-25T11:40:19;14.83;;;4.17;;
16242;SDS011;11719;51.052;6.982;2024-01-25T11:42:47;18.53;;;5.97;;
16242;SDS011;11719;51.052;6.982;2024-01-25T11:45:16;15.07;;;5.37;;
16242;SDS011;11719;51.052;6.982;2024-01-25T11:47:43;24.17;;;5.33;;
16242;SDS011;11719;51.052;6.982;2024-01-25T11:50:10;22.30;;;5.93;;
16242;SDS011;11719;51.052;6.982;2024-01-25T11:52:37;23.27;;;5.27;;
16242;SDS011;11719;51.052;6.982;2024-01-25T11:55:04;22.33;;;6.13;;
16242;SDS011;11719;51.052;6.982;2024-01-25T11:57:35;22.97;;;5.67;;
16242;SDS011;11719;51.052;6.982;2024-01-25T12:00:04;15.20;;;4.67;;
16242;SDS011;11719;51.052;6.982;2024-01-25T12:02:37;17.00;;;4.50;;
16242;SDS011;11719;51.052;6.982;2024-01-25T12:05:04;27.70;;;5.13;;
16242;SDS011;11719;51.052;6.982;2024-01-25T12:07:31;24.17;;;4.70;;
16242;SDS011;11719;51.052;6.982;2024-01-25T12:10:04;19.57;;;4.20;;
16242;SDS011;11719;51.052;6.982;2024-01-25T12:12:32;17.53;;;4.20;;
16242;SDS011;11719;51.052;6.982;2024-01-25T12:15:00;13.97;;;4.00;;
16242;SDS011;11719;51.052;6.982;2024-01-25T12:17:30;19.33;;;4.03;;
16242;SDS011;11719;51.052;6.982;2024-01-25T12:19:56;15.40;;;3.80;;
16242;SDS011;11719;51.052;6.982;2024-01-25T12:22:24;21.67;;;3.83;;
16242;SDS011;11719;51.052;6.982;2024-01-25T12:24:58;22.93;;;4.40;;
16242;SDS011;11719;51.052;6.982;2024-01-25T12:27:24;19.97;;;4.23;;
16242;SDS011;11719;51.052;6.982;2024-01-25T12:29:52;17.73;;;3.97;;
16242;SDS011;11719;51.052;6.982;2024-01-25T12:32:21;13.20;;;3.73;;
16242;SDS011;11719;51.052;6.982;2024-01-25T12:34:57;15.10;;;3.13;;
16242;SDS011;11719;51.052;6.982;2024-01-25T12:37:28;14.70;;;3.27;;
16242;SDS011;11719;51.052;6.982;2024-01-25T12:39:55;14.43;;;3.53;;
16242;SDS011;11719;51.052;6.982;2024-01-25T12:42:21;18.37;;;4.27;;
16242;SDS011;11719;51.052;6.982;2024-01-25T12:44:47;10.13;;;2.93;;
16242;SDS011;11719;51.052;6.982;2024-01-25T12:47:17;13.83;;;3.40;;
16242;SDS011;11719;51.052;6.982;2024-01-25T12:49:45;15.40;;;3.43;;
16242;SDS011;11719;51.052;6.982;2024-01-25T12:52:11;17.47;;;3.93;;
16242;SDS011;11719;51.052;6.982;2024-01-25T12:54:40;14.23;;;3.80;;
16242;SDS011;11719;51.052;6.982;2024-01-25T12:57:06;14.27;;;3.13;;
16242;SDS011;11719;51.052;6.982;2024-01-25T12:59:35;17.80;;;3.80;;
16242;SDS011;11719;51.052;6.982;2024-01-25T13:02:02;10.27;;;2.50;;
16242;SDS011;11719;51.052;6.982;2024-01-25T13:04:29;14.43;;;4.07;;
16242;SDS011;11719;51.052;6.982;2024-01-25T13:06:55;16.57;;;3.93;;
16242;SDS011;11719;51.052;6.982;2024-01-25T13:09:22;16.73;;;3.40;;
16242;SDS011;11719;51.052;6.982;2024-01-25T13:11:49;12.83;;;3.23;;
16242;SDS011;11719;51.052;6.982;2024-01-25T13:14:16;13.63;;;2.90;;
16242;SDS011;11719;51.052;6.982;2024-01-25T13:16:42;11.90;;;3.40;;
16242;SDS011;11719;51.052;6.982;2024-01-25T13:19:07;13.97;;;2.90;;
16242;SDS011;11719;51.052;6.982;2024-01-25T13:21:34;14.40;;;2.87;;
16242;SDS011;11719;51.052;6.982;2024-01-25T13:24:00;17.17;;;2.97;;
16242;SDS011;11719;51.052;6.982;2024-01-25T13:26:26;14.70;;;3.77;;
16242;SDS011;11719;51.052;6.982;2024-01-25T13:28:52;10.20;;;2.90;;
16242;SDS011;11719;51.052;6.982;2024-01-25T13:31:18;10.07;;;2.60;;
16242;SDS011;11719;51.052;6.982;2024-01-25T13:33:46;15.37;;;3.37;;
16242;SDS011;11719;51.052;6.982;2024-01-25T13:36:15;15.80;;;4.00;;
16242;SDS011;11719;51.052;6.982;2024-01-25T13:38:41;15.07;;;3.07;;
16242;SDS011;11719;51.052;6.982;2024-01-25T13:41:06;15.93;;;3.00;;
16242;SDS011;11719;51.052;6.982;2024-01-25T13:43:32;17.60;;;3.70;;
16242;SDS011;11719;51.052;6.982;2024-01-25T13:45:58;15.47;;;3.33;;
16242;SDS011;11719;51.052;6.982;2024-01-25T13:48:24;9.90;;;2.60;;
16242;SDS011;11719;51.052;6.982;2024-01-25T13:50:49;10.90;;;2.60;;
16242;SDS011;11719;51.052;6.982;2024-01-25T13:53:15;8.10;;;2.50;;
16242;SDS011;11719;51.052;6.982;2024-01-25T13:55:42;9.53;;;2.83;;
16242;SDS011;11719;51.052;6.982;2024-01-25T13:58:08;16.67;;;4.27;;
16242;SDS011;11719;51.052;6.982;2024-01-25T14:00:37;12.90;;;3.40;;
16242;SDS011;11719;51.052;6.982;2024-01-25T14:03:03;8.23;;;2.23;;
16242;SDS011;11719;51.052;6.982;2024-01-25T14:05:31;14.47;;;3.20;;
16242;SDS011;11719;51.052;6.982;2024-01-25T14:07:57;14.27;;;3.27;;
16242;SDS011;11719;51.052;6.982;2024-01-25T14:10:24;10.13;;;3.13;;
16242;SDS011;11719;51.052;6.982;2024-01-25T14:12:52;14.07;;;3.13;;
16242;SDS011;11719;51.052;6.982;2024-01-25T14:15:19;10.50;;;2.40;;
16242;SDS011;11719;51.052;6.982;2024-01-25T14:17:45;9.83;;;2.63;;
16242;SDS011;11719;51.052;6.982;2024-01-25T14:20:10;14.83;;;3.30;;
16242;SDS011;11719;51.052;6.982;2024-01-25T14:22:37;17.53;;;3.47;;
16242;SDS011;11719;51.052;6.982;2024-01-25T14:25:03;16.33;;;3.70;;
16242;SDS011;11719;51.052;6.982;2024-01-25T14:27:32;9.57;;;3.07;;
16242;SDS011;11719;51.052;6.982;2024-01-25T14:29:58;7.17;;;2.77;;
16242;SDS011;11719;51.052;6.982;2024-01-25T14:32:25;9.10;;;2.73;;
16242;SDS011;11719;51.052;6.982;2024-01-25T14:34:51;15.50;;;3.87;;
16242;SDS011;11719;51.052;6.982;2024-01-25T14:37:17;12.00;;;3.40;;